Terminal Aerodrome Forecast
Issued by NWS

Home | Current Version | Previous Version | Text Only | Print | Product List | Glossary On
Versions: 1 2 3 4 5 6 7 8 9 10 11 12 13 14 15 16 17 18 19 20 21 22 23 24 25 26 27 28 29 30 31 32 33 34 35 36
000
FTAK31 PANC 251303 AAA
TAFAIL
TAF AMD
PAIL 251303Z 2513/2612 08010KT P6SM SCT025 BKN040
      TEMPO 2513/2515 08010G16KT -RA BKN025
     FM251900 10012G16KT P6SM FEW150
     FM260000 10010KT P6SM FEW250
     FM260700 31005KT P6SM FEW250=

USA.gov is the U.S. government's official web portal to all federal, state and local government web resources and services.